sensor_id;sensor_type;location;lat;lon;timestamp;P1;durP1;ratioP1;P2;durP2;ratioP2
11396;SDS011;5754;43.726;7.416;2024-03-02T00:01:19;15.00;;;13.90;;
11396;SDS011;5754;43.726;7.416;2024-03-02T00:03:54;15.13;;;14.20;;
11396;SDS011;5754;43.726;7.416;2024-03-02T00:06:29;14.53;;;13.53;;
11396;SDS011;5754;43.726;7.416;2024-03-02T00:09:03;13.87;;;13.00;;
11396;SDS011;5754;43.726;7.416;2024-03-02T00:11:39;14.50;;;13.57;;
11396;SDS011;5754;43.726;7.416;2024-03-02T00:14:14;13.67;;;12.87;;
11396;SDS011;5754;43.726;7.416;2024-03-02T00:16:50;15.20;;;14.30;;
11396;SDS011;5754;43.726;7.416;2024-03-02T00:19:28;14.60;;;13.67;;
11396;SDS011;5754;43.726;7.416;2024-03-02T00:22:04;14.97;;;14.00;;
11396;SDS011;5754;43.726;7.416;2024-03-02T00:24:38;15.70;;;14.50;;
11396;SDS011;5754;43.726;7.416;2024-03-02T00:27:14;17.27;;;16.37;;
11396;SDS011;5754;43.726;7.416;2024-03-02T00:29:50;16.80;;;15.80;;
11396;SDS011;5754;43.726;7.416;2024-03-02T00:32:26;17.50;;;16.37;;
11396;SDS011;5754;43.726;7.416;2024-03-02T00:35:05;17.73;;;16.77;;
11396;SDS011;5754;43.726;7.416;2024-03-02T00:37:40;17.90;;;16.70;;
11396;SDS011;5754;43.726;7.416;2024-03-02T00:40:27;16.97;;;15.87;;
11396;SDS011;5754;43.726;7.416;2024-03-02T00:43:02;18.00;;;16.90;;
11396;SDS011;5754;43.726;7.416;2024-03-02T00:45:39;17.27;;;16.30;;
11396;SDS011;5754;43.726;7.416;2024-03-02T00:48:15;16.60;;;15.77;;
11396;SDS011;5754;43.726;7.416;2024-03-02T00:50:53;18.63;;;17.63;;
11396;SDS011;5754;43.726;7.416;2024-03-02T00:53:27;17.43;;;16.43;;
11396;SDS011;5754;43.726;7.416;2024-03-02T00:56:03;16.93;;;16.03;;
11396;SDS011;5754;43.726;7.416;2024-03-02T00:58:37;17.37;;;16.33;;
11396;SDS011;5754;43.726;7.416;2024-03-02T01:01:17;17.90;;;16.77;;
11396;SDS011;5754;43.726;7.416;2024-03-02T01:03:53;17.30;;;16.23;;
11396;SDS011;5754;43.726;7.416;2024-03-02T01:06:30;16.93;;;16.00;;
11396;SDS011;5754;43.726;7.416;2024-03-02T01:11:46;17.37;;;16.17;;
11396;SDS011;5754;43.726;7.416;2024-03-02T01:14:21;17.23;;;16.33;;
11396;SDS011;5754;43.726;7.416;2024-03-02T01:16:57;17.53;;;16.63;;
11396;SDS011;5754;43.726;7.416;2024-03-02T01:19:32;17.93;;;16.93;;
11396;SDS011;5754;43.726;7.416;2024-03-02T01:22:07;17.33;;;16.33;;
11396;SDS011;5754;43.726;7.416;2024-03-02T01:24:43;17.03;;;16.13;;
11396;SDS011;5754;43.726;7.416;2024-03-02T01:27:17;17.00;;;16.10;;
11396;SDS011;5754;43.726;7.416;2024-03-02T01:29:55;17.90;;;17.00;;
11396;SDS011;5754;43.726;7.416;2024-03-02T01:32:30;17.40;;;16.50;;
11396;SDS011;5754;43.726;7.416;2024-03-02T01:35:05;17.33;;;16.33;;
11396;SDS011;5754;43.726;7.416;2024-03-02T01:37:41;16.50;;;15.70;;
11396;SDS011;5754;43.726;7.416;2024-03-02T01:40:18;17.17;;;16.13;;
11396;SDS011;5754;43.726;7.416;2024-03-02T01:42:53;17.50;;;16.60;;
11396;SDS011;5754;43.726;7.416;2024-03-02T01:45:27;18.50;;;17.50;;
11396;SDS011;5754;43.726;7.416;2024-03-02T01:48:02;17.67;;;16.73;;
11396;SDS011;5754;43.726;7.416;2024-03-02T01:50:36;18.17;;;17.23;;
11396;SDS011;5754;43.726;7.416;2024-03-02T01:53:14;17.87;;;16.87;;
11396;SDS011;5754;43.726;7.416;2024-03-02T01:55:48;18.77;;;17.77;;
11396;SDS011;5754;43.726;7.416;2024-03-02T01:58:23;18.67;;;17.73;;
11396;SDS011;5754;43.726;7.416;2024-03-02T02:00:57;19.07;;;18.00;;
11396;SDS011;5754;43.726;7.416;2024-03-02T02:03:33;18.20;;;17.13;;
11396;SDS011;5754;43.726;7.416;2024-03-02T02:06:07;17.33;;;16.23;;
11396;SDS011;5754;43.726;7.416;2024-03-02T02:08:43;17.70;;;16.60;;
11396;SDS011;5754;43.726;7.416;2024-03-02T02:11:20;17.03;;;16.23;;
11396;SDS011;5754;43.726;7.416;2024-03-02T02:13:57;17.23;;;16.27;;
11396;SDS011;5754;43.726;7.416;2024-03-02T02:16:31;18.10;;;17.00;;
11396;SDS011;5754;43.726;7.416;2024-03-02T02:19:06;18.30;;;17.03;;
11396;SDS011;5754;43.726;7.416;2024-03-02T02:21:44;18.03;;;17.10;;
11396;SDS011;5754;43.726;7.416;2024-03-02T02:24:22;18.37;;;17.37;;
11396;SDS011;5754;43.726;7.416;2024-03-02T02:26:58;19.30;;;18.20;;
11396;SDS011;5754;43.726;7.416;2024-03-02T02:29:33;18.13;;;17.10;;
11396;SDS011;5754;43.726;7.416;2024-03-02T02:32:11;17.37;;;16.43;;
11396;SDS011;5754;43.726;7.416;2024-03-02T02:34:45;17.70;;;16.80;;
11396;SDS011;5754;43.726;7.416;2024-03-02T02:37:20;17.87;;;16.97;;
11396;SDS011;5754;43.726;7.416;2024-03-02T02:39:57;17.37;;;16.47;;
11396;SDS011;5754;43.726;7.416;2024-03-02T02:42:32;17.70;;;16.57;;
11396;SDS011;5754;43.726;7.416;2024-03-02T02:45:07;17.97;;;17.07;;
11396;SDS011;5754;43.726;7.416;2024-03-02T02:47:47;18.43;;;17.33;;
11396;SDS011;5754;43.726;7.416;2024-03-02T02:50:22;16.90;;;15.97;;
11396;SDS011;5754;43.726;7.416;2024-03-02T02:52:57;17.10;;;16.10;;
11396;SDS011;5754;43.726;7.416;2024-03-02T02:55:33;17.90;;;17.00;;
11396;SDS011;5754;43.726;7.416;2024-03-02T02:58:09;18.43;;;17.50;;
11396;SDS011;5754;43.726;7.416;2024-03-02T03:00:43;18.23;;;17.30;;
11396;SDS011;5754;43.726;7.416;2024-03-02T03:03:19;17.00;;;16.10;;
11396;SDS011;5754;43.726;7.416;2024-03-02T03:05:53;18.10;;;17.00;;
11396;SDS011;5754;43.726;7.416;2024-03-02T03:08:28;17.20;;;16.40;;
11396;SDS011;5754;43.726;7.416;2024-03-02T03:11:04;17.70;;;16.80;;
11396;SDS011;5754;43.726;7.416;2024-03-02T03:13:38;18.97;;;17.87;;
11396;SDS011;5754;43.726;7.416;2024-03-02T03:16:13;18.50;;;17.47;;
11396;SDS011;5754;43.726;7.416;2024-03-02T03:18:47;18.33;;;17.40;;
11396;SDS011;5754;43.726;7.416;2024-03-02T03:21:26;18.77;;;17.77;;
11396;SDS011;5754;43.726;7.416;2024-03-02T03:24:01;18.33;;;17.40;;
11396;SDS011;5754;43.726;7.416;2024-03-02T03:26:37;18.53;;;17.60;;
11396;SDS011;5754;43.726;7.416;2024-03-02T03:29:13;18.30;;;17.40;;
11396;SDS011;5754;43.726;7.416;2024-03-02T03:31:49;18.50;;;17.50;;
11396;SDS011;5754;43.726;7.416;2024-03-02T03:34:24;18.47;;;17.53;;
11396;SDS011;5754;43.726;7.416;2024-03-02T03:37:08;18.63;;;17.50;;
11396;SDS011;5754;43.726;7.416;2024-03-02T03:39:44;18.57;;;17.47;;
11396;SDS011;5754;43.726;7.416;2024-03-02T03:42:20;18.67;;;17.67;;
11396;SDS011;5754;43.726;7.416;2024-03-02T03:44:54;18.73;;;17.63;;
11396;SDS011;5754;43.726;7.416;2024-03-02T03:47:29;19.53;;;18.50;;
11396;SDS011;5754;43.726;7.416;2024-03-02T03:50:06;18.03;;;17.03;;
11396;SDS011;5754;43.726;7.416;2024-03-02T03:52:41;17.60;;;16.80;;
11396;SDS011;5754;43.726;7.416;2024-03-02T03:55:17;19.30;;;18.30;;
11396;SDS011;5754;43.726;7.416;2024-03-02T03:57:52;17.90;;;17.10;;
11396;SDS011;5754;43.726;7.416;2024-03-02T04:00:27;18.10;;;17.00;;
11396;SDS011;5754;43.726;7.416;2024-03-02T04:03:02;17.33;;;16.33;;
11396;SDS011;5754;43.726;7.416;2024-03-02T04:05:38;18.80;;;17.70;;
11396;SDS011;5754;43.726;7.416;2024-03-02T04:08:14;18.70;;;17.50;;
11396;SDS011;5754;43.726;7.416;2024-03-02T04:10:51;19.40;;;18.50;;
11396;SDS011;5754;43.726;7.416;2024-03-02T04:13:25;20.37;;;19.27;;
11396;SDS011;5754;43.726;7.416;2024-03-02T04:16:00;19.73;;;18.63;;
11396;SDS011;5754;43.726;7.416;2024-03-02T04:18:37;19.67;;;18.20;;
11396;SDS011;5754;43.726;7.416;2024-03-02T04:21:13;19.27;;;18.17;;
11396;SDS011;5754;43.726;7.416;2024-03-02T04:23:47;18.27;;;17.30;;
11396;SDS011;5754;43.726;7.416;2024-03-02T04:26:27;18.60;;;17.53;;
11396;SDS011;5754;43.726;7.416;2024-03-02T04:29:02;18.63;;;17.53;;
11396;SDS011;5754;43.726;7.416;2024-03-02T04:31:36;17.43;;;16.53;;
11396;SDS011;5754;43.726;7.416;2024-03-02T04:34:11;17.40;;;16.37;;
11396;SDS011;5754;43.726;7.416;2024-03-02T04:36:46;17.50;;;16.40;;
11396;SDS011;5754;43.726;7.416;2024-03-02T04:39:20;17.47;;;16.37;;
11396;SDS011;5754;43.726;7.416;2024-03-02T04:41:54;17.97;;;16.90;;
11396;SDS011;5754;43.726;7.416;2024-03-02T04:44:29;17.53;;;16.63;;
11396;SDS011;5754;43.726;7.416;2024-03-02T04:47:04;17.73;;;16.60;;
11396;SDS011;5754;43.726;7.416;2024-03-02T04:49:39;18.63;;;17.53;;
11396;SDS011;5754;43.726;7.416;2024-03-02T04:52:16;17.53;;;16.53;;
11396;SDS011;5754;43.726;7.416;2024-03-02T04:54:50;17.20;;;16.20;;
11396;SDS011;5754;43.726;7.416;2024-03-02T04:57:51;18.87;;;17.77;;
11396;SDS011;5754;43.726;7.416;2024-03-02T05:00:28;19.03;;;17.60;;
11396;SDS011;5754;43.726;7.416;2024-03-02T05:03:02;19.07;;;17.97;;
11396;SDS011;5754;43.726;7.416;2024-03-02T05:05:37;17.70;;;16.70;;
11396;SDS011;5754;43.726;7.416;2024-03-02T05:08:12;18.87;;;17.67;;
11396;SDS011;5754;43.726;7.416;2024-03-02T05:10:46;19.23;;;18.10;;
11396;SDS011;5754;43.726;7.416;2024-03-02T05:13:21;19.13;;;18.00;;
11396;SDS011;5754;43.726;7.416;2024-03-02T05:15:56;19.37;;;18.17;;
11396;SDS011;5754;43.726;7.416;2024-03-02T05:18:31;18.27;;;17.27;;
11396;SDS011;5754;43.726;7.416;2024-03-02T05:21:05;18.00;;;17.00;;
11396;SDS011;5754;43.726;7.416;2024-03-02T05:23:40;17.43;;;16.43;;
11396;SDS011;5754;43.726;7.416;2024-03-02T05:26:15;17.00;;;15.80;;
11396;SDS011;5754;43.726;7.416;2024-03-02T05:28:50;16.10;;;15.17;;
11396;SDS011;5754;43.726;7.416;2024-03-02T05:31:25;15.83;;;15.03;;
11396;SDS011;5754;43.726;7.416;2024-03-02T05:34:00;15.47;;;14.67;;
11396;SDS011;5754;43.726;7.416;2024-03-02T05:36:36;16.43;;;15.30;;
11396;SDS011;5754;43.726;7.416;2024-03-02T05:39:12;16.37;;;15.47;;
11396;SDS011;5754;43.726;7.416;2024-03-02T05:41:49;16.90;;;15.97;;
11396;SDS011;5754;43.726;7.416;2024-03-02T05:44:24;16.73;;;15.50;;
11396;SDS011;5754;43.726;7.416;2024-03-02T05:47:01;16.67;;;15.77;;
11396;SDS011;5754;43.726;7.416;2024-03-02T05:49:35;17.53;;;15.93;;
11396;SDS011;5754;43.726;7.416;2024-03-02T05:52:10;18.57;;;17.20;;
11396;SDS011;5754;43.726;7.416;2024-03-02T05:54:46;17.97;;;16.87;;
11396;SDS011;5754;43.726;7.416;2024-03-02T05:57:22;19.73;;;18.53;;
11396;SDS011;5754;43.726;7.416;2024-03-02T06:00:13;19.47;;;18.07;;
11396;SDS011;5754;43.726;7.416;2024-03-02T06:02:50;20.43;;;19.20;;
11396;SDS011;5754;43.726;7.416;2024-03-02T06:05:26;21.43;;;20.23;;
11396;SDS011;5754;43.726;7.416;2024-03-02T06:08:01;19.87;;;18.73;;
11396;SDS011;5754;43.726;7.416;2024-03-02T06:10:37;19.80;;;18.70;;
11396;SDS011;5754;43.726;7.416;2024-03-02T06:13:14;19.10;;;18.10;;
11396;SDS011;5754;43.726;7.416;2024-03-02T06:15:48;19.77;;;18.73;;
11396;SDS011;5754;43.726;7.416;2024-03-02T06:18:23;19.60;;;18.50;;
11396;SDS011;5754;43.726;7.416;2024-03-02T06:20:57;19.20;;;18.20;;
11396;SDS011;5754;43.726;7.416;2024-03-02T06:23:32;20.43;;;19.30;;
11396;SDS011;5754;43.726;7.416;2024-03-02T06:26:08;20.50;;;19.30;;
11396;SDS011;5754;43.726;7.416;2024-03-02T06:28:42;23.30;;;22.00;;
11396;SDS011;5754;43.726;7.416;2024-03-02T06:31:17;23.77;;;22.50;;
11396;SDS011;5754;43.726;7.416;2024-03-02T06:33:51;26.53;;;25.00;;
11396;SDS011;5754;43.726;7.416;2024-03-02T06:36:26;26.50;;;25.20;;
11396;SDS011;5754;43.726;7.416;2024-03-02T06:39:00;28.03;;;26.63;;
11396;SDS011;5754;43.726;7.416;2024-03-02T06:41:35;30.57;;;29.10;;
11396;SDS011;5754;43.726;7.416;2024-03-02T06:44:11;33.40;;;31.73;;
11396;SDS011;5754;43.726;7.416;2024-03-02T06:46:45;38.13;;;36.20;;
11396;SDS011;5754;43.726;7.416;2024-03-02T06:49:21;39.93;;;37.87;;
11396;SDS011;5754;43.726;7.416;2024-03-02T06:51:55;42.10;;;39.93;;
11396;SDS011;5754;43.726;7.416;2024-03-02T06:54:31;40.17;;;38.10;;
11396;SDS011;5754;43.726;7.416;2024-03-02T06:57:05;38.17;;;36.23;;
11396;SDS011;5754;43.726;7.416;2024-03-02T06:59:41;38.17;;;36.20;;
11396;SDS011;5754;43.726;7.416;2024-03-02T07:02:15;37.30;;;35.40;;
11396;SDS011;5754;43.726;7.416;2024-03-02T07:04:50;37.20;;;35.40;;
11396;SDS011;5754;43.726;7.416;2024-03-02T07:07:24;34.83;;;33.03;;
11396;SDS011;5754;43.726;7.416;2024-03-02T07:09:59;33.67;;;31.80;;
11396;SDS011;5754;43.726;7.416;2024-03-02T07:12:34;34.03;;;32.30;;
11396;SDS011;5754;43.726;7.416;2024-03-02T07:15:10;35.77;;;33.97;;
11396;SDS011;5754;43.726;7.416;2024-03-02T07:18:02;33.90;;;32.20;;
11396;SDS011;5754;43.726;7.416;2024-03-02T07:20:38;34.90;;;32.40;;
11396;SDS011;5754;43.726;7.416;2024-03-02T07:23:13;33.40;;;31.80;;
11396;SDS011;5754;43.726;7.416;2024-03-02T07:25:47;33.60;;;31.90;;
11396;SDS011;5754;43.726;7.416;2024-03-02T07:28:25;32.30;;;30.67;;
11396;SDS011;5754;43.726;7.416;2024-03-02T07:31:00;32.37;;;30.87;;
11396;SDS011;5754;43.726;7.416;2024-03-02T07:33:35;32.00;;;30.10;;
11396;SDS011;5754;43.726;7.416;2024-03-02T07:36:10;31.63;;;30.07;;
11396;SDS011;5754;43.726;7.416;2024-03-02T07:38:45;29.93;;;28.33;;
11396;SDS011;5754;43.726;7.416;2024-03-02T07:41:24;31.40;;;29.63;;
11396;SDS011;5754;43.726;7.416;2024-03-02T07:43:59;34.83;;;33.13;;
11396;SDS011;5754;43.726;7.416;2024-03-02T07:46:34;38.80;;;36.70;;
11396;SDS011;5754;43.726;7.416;2024-03-02T07:49:08;43.40;;;40.87;;
11396;SDS011;5754;43.726;7.416;2024-03-02T07:51:43;46.03;;;43.83;;
11396;SDS011;5754;43.726;7.416;2024-03-02T07:54:18;48.10;;;45.63;;
11396;SDS011;5754;43.726;7.416;2024-03-02T07:56:53;49.63;;;46.73;;
11396;SDS011;5754;43.726;7.416;2024-03-02T07:59:28;53.77;;;51.27;;
11396;SDS011;5754;43.726;7.416;2024-03-02T08:02:03;54.83;;;52.23;;
11396;SDS011;5754;43.726;7.416;2024-03-02T08:04:37;58.90;;;56.20;;
11396;SDS011;5754;43.726;7.416;2024-03-02T08:07:13;62.20;;;59.30;;
11396;SDS011;5754;43.726;7.416;2024-03-02T08:09:48;71.33;;;68.13;;
11396;SDS011;5754;43.726;7.416;2024-03-02T08:12:23;74.20;;;70.80;;
11396;SDS011;5754;43.726;7.416;2024-03-02T08:14:57;75.60;;;72.03;;
11396;SDS011;5754;43.726;7.416;2024-03-02T08:17:32;77.53;;;73.93;;
11396;SDS011;5754;43.726;7.416;2024-03-02T08:20:08;76.23;;;72.70;;
11396;SDS011;5754;43.726;7.416;2024-03-02T08:22:44;82.27;;;78.67;;
11396;SDS011;5754;43.726;7.416;2024-03-02T08:25:20;84.93;;;80.93;;
11396;SDS011;5754;43.726;7.416;2024-03-02T08:27:59;84.70;;;80.90;;
11396;SDS011;5754;43.726;7.416;2024-03-02T08:30:33;88.50;;;84.67;;
11396;SDS011;5754;43.726;7.416;2024-03-02T08:33:09;91.50;;;87.27;;
11396;SDS011;5754;43.726;7.416;2024-03-02T08:35:44;93.90;;;89.70;;
11396;SDS011;5754;43.726;7.416;2024-03-02T08:38:19;93.93;;;89.73;;
11396;SDS011;5754;43.726;7.416;2024-03-02T08:40:54;98.33;;;93.97;;
11396;SDS011;5754;43.726;7.416;2024-03-02T08:43:29;100.22;;;95.82;;
11396;SDS011;5754;43.726;7.416;2024-03-02T08:46:05;102.57;;;98.07;;
11396;SDS011;5754;43.726;7.416;2024-03-02T08:48:39;102.60;;;98.12;;
11396;SDS011;5754;43.726;7.416;2024-03-02T08:51:14;103.03;;;98.55;;
11396;SDS011;5754;43.726;7.416;2024-03-02T08:53:50;102.95;;;98.45;;
11396;SDS011;5754;43.726;7.416;2024-03-02T08:56:24;104.75;;;100.38;;
11396;SDS011;5754;43.726;7.416;2024-03-02T08:58:59;107.55;;;102.95;;
11396;SDS011;5754;43.726;7.416;2024-03-02T09:01:33;107.45;;;102.90;;
11396;SDS011;5754;43.726;7.416;2024-03-02T09:04:08;106.55;;;101.95;;
11396;SDS011;5754;43.726;7.416;2024-03-02T09:06:42;106.50;;;101.90;;
11396;SDS011;5754;43.726;7.416;2024-03-02T09:09:17;105.60;;;101.15;;
11396;SDS011;5754;43.726;7.416;2024-03-02T09:11:52;106.30;;;101.60;;
11396;SDS011;5754;43.726;7.416;2024-03-02T09:14:30;103.90;;;99.43;;
11396;SDS011;5754;43.726;7.416;2024-03-02T09:17:05;104.30;;;99.80;;
11396;SDS011;5754;43.726;7.416;2024-03-02T09:19:39;103.17;;;98.47;;
11396;SDS011;5754;43.726;7.416;2024-03-02T09:22:13;106.23;;;101.67;;
11396;SDS011;5754;43.726;7.416;2024-03-02T09:24:47;103.37;;;98.60;;
11396;SDS011;5754;43.726;7.416;2024-03-02T09:27:22;102.93;;;98.43;;
11396;SDS011;5754;43.726;7.416;2024-03-02T09:29:56;103.20;;;98.60;;
11396;SDS011;5754;43.726;7.416;2024-03-02T09:32:31;101.67;;;97.33;;
11396;SDS011;5754;43.726;7.416;2024-03-02T09:35:06;101.25;;;96.93;;
11396;SDS011;5754;43.726;7.416;2024-03-02T09:37:40;102.43;;;97.97;;
11396;SDS011;5754;43.726;7.416;2024-03-02T09:40:15;103.83;;;99.07;;
11396;SDS011;5754;43.726;7.416;2024-03-02T09:42:50;103.33;;;98.77;;
11396;SDS011;5754;43.726;7.416;2024-03-02T09:45:29;101.33;;;96.53;;
11396;SDS011;5754;43.726;7.416;2024-03-02T09:48:05;100.17;;;95.73;;
11396;SDS011;5754;43.726;7.416;2024-03-02T09:50:40;102.83;;;98.23;;
11396;SDS011;5754;43.726;7.416;2024-03-02T09:53:14;102.50;;;98.20;;
11396;SDS011;5754;43.726;7.416;2024-03-02T09:55:49;102.20;;;97.83;;
11396;SDS011;5754;43.726;7.416;2024-03-02T09:58:25;104.03;;;99.43;;
11396;SDS011;5754;43.726;7.416;2024-03-02T10:00:59;106.10;;;101.60;;
11396;SDS011;5754;43.726;7.416;2024-03-02T10:03:34;104.60;;;99.80;;
11396;SDS011;5754;43.726;7.416;2024-03-02T10:06:24;104.60;;;99.97;;
11396;SDS011;5754;43.726;7.416;2024-03-02T10:08:59;105.73;;;101.13;;
11396;SDS011;5754;43.726;7.416;2024-03-02T10:11:35;104.73;;;100.03;;
11396;SDS011;5754;43.726;7.416;2024-03-02T10:14:12;103.20;;;98.50;;
11396;SDS011;5754;43.726;7.416;2024-03-02T10:16:47;104.37;;;99.47;;
11396;SDS011;5754;43.726;7.416;2024-03-02T10:19:22;107.10;;;102.40;;
11396;SDS011;5754;43.726;7.416;2024-03-02T10:21:57;106.53;;;101.73;;
11396;SDS011;5754;43.726;7.416;2024-03-02T10:24:42;104.30;;;99.67;;
11396;SDS011;5754;43.726;7.416;2024-03-02T10:27:25;104.60;;;100.10;;
11396;SDS011;5754;43.726;7.416;2024-03-02T10:30:02;104.37;;;99.87;;
11396;SDS011;5754;43.726;7.416;2024-03-02T10:32:39;103.87;;;99.37;;
11396;SDS011;5754;43.726;7.416;2024-03-02T10:35:14;104.87;;;100.03;;
11396;SDS011;5754;43.726;7.416;2024-03-02T10:37:49;105.57;;;101.07;;
11396;SDS011;5754;43.726;7.416;2024-03-02T10:40:24;106.30;;;101.73;;
11396;SDS011;5754;43.726;7.416;2024-03-02T10:42:58;108.20;;;103.60;;
11396;SDS011;5754;43.726;7.416;2024-03-02T10:45:34;108.07;;;103.38;;
11396;SDS011;5754;43.726;7.416;2024-03-02T10:48:09;109.07;;;103.83;;
11396;SDS011;5754;43.726;7.416;2024-03-02T10:50:44;110.93;;;106.20;;
11396;SDS011;5754;43.726;7.416;2024-03-02T10:53:19;106.53;;;102.03;;
11396;SDS011;5754;43.726;7.416;2024-03-02T10:55:57;109.63;;;104.93;;
11396;SDS011;5754;43.726;7.416;2024-03-02T10:58:37;109.60;;;104.87;;
11396;SDS011;5754;43.726;7.416;2024-03-02T11:01:12;109.17;;;104.57;;
11396;SDS011;5754;43.726;7.416;2024-03-02T11:03:47;109.67;;;104.93;;
11396;SDS011;5754;43.726;7.416;2024-03-02T11:06:22;110.03;;;105.13;;
11396;SDS011;5754;43.726;7.416;2024-03-02T11:08:57;109.67;;;104.70;;
11396;SDS011;5754;43.726;7.416;2024-03-02T11:11:32;108.23;;;103.37;;
11396;SDS011;5754;43.726;7.416;2024-03-02T11:14:14;108.37;;;103.67;;
11396;SDS011;5754;43.726;7.416;2024-03-02T11:16:50;110.33;;;105.60;;
11396;SDS011;5754;43.726;7.416;2024-03-02T11:19:26;108.67;;;104.07;;
11396;SDS011;5754;43.726;7.416;2024-03-02T11:22:01;109.90;;;105.10;;
11396;SDS011;5754;43.726;7.416;2024-03-02T11:24:36;110.53;;;105.60;;
11396;SDS011;5754;43.726;7.416;2024-03-02T11:27:11;108.60;;;103.90;;
11396;SDS011;5754;43.726;7.416;2024-03-02T11:29:45;111.53;;;106.53;;
11396;SDS011;5754;43.726;7.416;2024-03-02T11:32:21;111.70;;;106.90;;
11396;SDS011;5754;43.726;7.416;2024-03-02T11:34:59;108.63;;;104.03;;
11396;SDS011;5754;43.726;7.416;2024-03-02T11:37:36;106.63;;;102.17;;
11396;SDS011;5754;43.726;7.416;2024-03-02T11:40:11;108.50;;;103.93;;
11396;SDS011;5754;43.726;7.416;2024-03-02T11:42:46;106.87;;;102.07;;
11396;SDS011;5754;43.726;7.416;2024-03-02T11:45:23;106.73;;;102.10;;
11396;SDS011;5754;43.726;7.416;2024-03-02T11:47:58;106.20;;;101.63;;
11396;SDS011;5754;43.726;7.416;2024-03-02T11:53:18;104.63;;;100.13;;
11396;SDS011;5754;43.726;7.416;2024-03-02T11:55:57;105.93;;;101.33;;
11396;SDS011;5754;43.726;7.416;2024-03-02T11:58:32;106.50;;;101.90;;
11396;SDS011;5754;43.726;7.416;2024-03-02T12:01:10;109.27;;;104.33;;
11396;SDS011;5754;43.726;7.416;2024-03-02T12:03:47;106.90;;;102.10;;
11396;SDS011;5754;43.726;7.416;2024-03-02T12:06:22;105.57;;;101.03;;
11396;SDS011;5754;43.726;7.416;2024-03-02T12:08:57;104.57;;;100.00;;
11396;SDS011;5754;43.726;7.416;2024-03-02T12:11:33;106.20;;;101.50;;
11396;SDS011;5754;43.726;7.416;2024-03-02T12:14:11;109.50;;;104.53;;
11396;SDS011;5754;43.726;7.416;2024-03-02T12:16:49;105.93;;;101.27;;
11396;SDS011;5754;43.726;7.416;2024-03-02T12:19:25;106.10;;;101.50;;
11396;SDS011;5754;43.726;7.416;2024-03-02T12:22:00;107.30;;;102.43;;
11396;SDS011;5754;43.726;7.416;2024-03-02T12:24:36;105.47;;;100.73;;
11396;SDS011;5754;43.726;7.416;2024-03-02T12:27:12;106.80;;;102.10;;
11396;SDS011;5754;43.726;7.416;2024-03-02T12:29:47;103.97;;;99.57;;
11396;SDS011;5754;43.726;7.416;2024-03-02T12:32:27;106.30;;;101.80;;
11396;SDS011;5754;43.726;7.416;2024-03-02T12:35:03;104.77;;;100.20;;
11396;SDS011;5754;43.726;7.416;2024-03-02T12:37:49;107.83;;;103.33;;
11396;SDS011;5754;43.726;7.416;2024-03-02T12:40:24;102.77;;;98.37;;
11396;SDS011;5754;43.726;7.416;2024-03-02T12:42:59;104.80;;;100.27;;
11396;SDS011;5754;43.726;7.416;2024-03-02T12:45:35;107.33;;;102.70;;
11396;SDS011;5754;43.726;7.416;2024-03-02T12:48:10;105.97;;;101.30;;
11396;SDS011;5754;43.726;7.416;2024-03-02T12:50:45;106.77;;;102.17;;
11396;SDS011;5754;43.726;7.416;2024-03-02T12:53:21;107.73;;;103.03;;
11396;SDS011;5754;43.726;7.416;2024-03-02T12:55:57;110.00;;;105.30;;
11396;SDS011;5754;43.726;7.416;2024-03-02T12:58:38;107.87;;;103.23;;
11396;SDS011;5754;43.726;7.416;2024-03-02T13:01:14;108.00;;;103.23;;
11396;SDS011;5754;43.726;7.416;2024-03-02T13:03:54;107.07;;;102.47;;
11396;SDS011;5754;43.726;7.416;2024-03-02T13:06:32;107.87;;;103.17;;
11396;SDS011;5754;43.726;7.416;2024-03-02T13:09:10;108.10;;;103.37;;
11396;SDS011;5754;43.726;7.416;2024-03-02T13:11:48;106.60;;;101.90;;
11396;SDS011;5754;43.726;7.416;2024-03-02T13:14:23;106.40;;;101.60;;
11396;SDS011;5754;43.726;7.416;2024-03-02T13:16:59;107.07;;;102.17;;
11396;SDS011;5754;43.726;7.416;2024-03-02T13:19:34;108.70;;;103.60;;
11396;SDS011;5754;43.726;7.416;2024-03-02T13:22:08;108.50;;;103.60;;
11396;SDS011;5754;43.726;7.416;2024-03-02T13:24:42;111.17;;;106.07;;
11396;SDS011;5754;43.726;7.416;2024-03-02T13:27:18;107.03;;;101.73;;
11396;SDS011;5754;43.726;7.416;2024-03-02T13:29:56;106.87;;;102.07;;
11396;SDS011;5754;43.726;7.416;2024-03-02T13:32:32;109.00;;;104.20;;
11396;SDS011;5754;43.726;7.416;2024-03-02T13:35:08;109.73;;;104.57;;
11396;SDS011;5754;43.726;7.416;2024-03-02T13:37:44;110.70;;;105.27;;
11396;SDS011;5754;43.726;7.416;2024-03-02T13:40:18;107.73;;;102.67;;
11396;SDS011;5754;43.726;7.416;2024-03-02T13:42:54;106.70;;;101.67;;
11396;SDS011;5754;43.726;7.416;2024-03-02T13:45:29;107.53;;;102.23;;
11396;SDS011;5754;43.726;7.416;2024-03-02T13:48:04;105.77;;;100.53;;
11396;SDS011;5754;43.726;7.416;2024-03-02T13:50:39;109.70;;;104.07;;
11396;SDS011;5754;43.726;7.416;2024-03-02T13:53:15;108.50;;;103.13;;
11396;SDS011;5754;43.726;7.416;2024-03-02T13:55:50;104.27;;;98.90;;
11396;SDS011;5754;43.726;7.416;2024-03-02T13:58:24;104.30;;;99.37;;
11396;SDS011;5754;43.726;7.416;2024-03-02T14:00:58;106.87;;;101.63;;
11396;SDS011;5754;43.726;7.416;2024-03-02T14:03:35;102.17;;;97.00;;
11396;SDS011;5754;43.726;7.416;2024-03-02T14:06:12;100.63;;;95.73;;
11396;SDS011;5754;43.726;7.416;2024-03-02T14:08:46;100.63;;;95.50;;
11396;SDS011;5754;43.726;7.416;2024-03-02T14:11:21;101.00;;;95.63;;
11396;SDS011;5754;43.726;7.416;2024-03-02T14:13:56;90.53;;;85.90;;
11396;SDS011;5754;43.726;7.416;2024-03-02T14:16:32;88.27;;;83.60;;
11396;SDS011;5754;43.726;7.416;2024-03-02T14:19:06;84.70;;;79.97;;
11396;SDS011;5754;43.726;7.416;2024-03-02T14:21:43;80.77;;;75.97;;
11396;SDS011;5754;43.726;7.416;2024-03-02T14:24:17;73.30;;;69.43;;
11396;SDS011;5754;43.726;7.416;2024-03-02T14:26:52;63.43;;;59.83;;
11396;SDS011;5754;43.726;7.416;2024-03-02T14:29:28;56.70;;;53.33;;
11396;SDS011;5754;43.726;7.416;2024-03-02T14:32:03;50.17;;;46.57;;
11396;SDS011;5754;43.726;7.416;2024-03-02T14:34:38;39.40;;;36.70;;
11396;SDS011;5754;43.726;7.416;2024-03-02T14:37:14;13.53;;;7.37;;
11396;SDS011;5754;43.726;7.416;2024-03-02T14:39:49;18.37;;;10.83;;
11396;SDS011;5754;43.726;7.416;2024-03-02T14:42:24;15.37;;;12.77;;
11396;SDS011;5754;43.726;7.416;2024-03-02T14:45:02;17.53;;;15.83;;
11396;SDS011;5754;43.726;7.416;2024-03-02T14:47:38;19.73;;;18.10;;
11396;SDS011;5754;43.726;7.416;2024-03-02T14:50:14;18.97;;;17.33;;
11396;SDS011;5754;43.726;7.416;2024-03-02T14:52:49;24.30;;;22.33;;
11396;SDS011;5754;43.726;7.416;2024-03-02T14:55:24;24.40;;;22.80;;
11396;SDS011;5754;43.726;7.416;2024-03-02T14:57:58;29.67;;;27.80;;
11396;SDS011;5754;43.726;7.416;2024-03-02T15:00:33;30.30;;;28.33;;
11396;SDS011;5754;43.726;7.416;2024-03-02T15:03:07;35.70;;;33.47;;
11396;SDS011;5754;43.726;7.416;2024-03-02T15:05:42;37.17;;;35.00;;
11396;SDS011;5754;43.726;7.416;2024-03-02T15:08:17;35.93;;;33.83;;
11396;SDS011;5754;43.726;7.416;2024-03-02T15:10:51;36.80;;;34.73;;
11396;SDS011;5754;43.726;7.416;2024-03-02T15:13:29;38.80;;;35.97;;
11396;SDS011;5754;43.726;7.416;2024-03-02T15:16:03;37.43;;;35.33;;
11396;SDS011;5754;43.726;7.416;2024-03-02T15:18:38;40.43;;;38.13;;
11396;SDS011;5754;43.726;7.416;2024-03-02T15:21:12;43.63;;;41.10;;